Flight Track Log - Related Links

Times and Time Zones

All times are in EDT time to prevent confusion due to time zone crossing. See the SWA1969 flight status page for this flight to view local times or setup timezone preferences in your user account.

Time Position Orientation Groundspeed Altitude Reporting Facility
EDT Latitude Longitude Course Direction KTS MPH feet Rate Location/Type
Thu 08:47:22 AM 35.4228 -97.6250 360° North 152 175 2,900  Level Fort Worth Center
Thu 08:49:38 AM 35.5039 -97.4928 53° Northeast 265 305 8,400 2,650 Climbing Kansas City Center
Thu 08:50:39 AM 35.5450 -97.3908 64° Northeast 319 367 11,600 3,443 Climbing Kansas City Center
Thu 08:51:40 AM 35.6011 -97.2536 63° Northeast 366 421 15,400 3,393 Climbing Kansas City Center
Thu 08:52:41 AM 35.6533 -97.1283 63° Northeast 387 445 18,500 2,876 Climbing Kansas City Center
Thu 08:53:41 AM 35.7072 -96.9975 63° Northeast 408 470 21,200 2,293 Climbing Kansas City Center
Thu 08:54:44 AM 35.7656 -96.8556 63° Northeast 445 512 23,200 2,129 Climbing Kansas City Center
Thu 08:55:45 AM 35.8250 -96.7072 64° Northeast 481 554 25,600 2,410 Climbing Kansas City Center
Thu 08:56:46 AM 35.8881 -96.5550 63° Northeast 494 568 28,100 2,213 Climbing Kansas City Center
Thu 08:57:47 AM 35.9522 -96.3969 63° Northeast 506 582 30,100 2,226 Climbing Kansas City Center
Thu 08:58:50 AM 36.0156 -96.2397 63° Northeast 511 588 32,700 2,304 Climbing Kansas City Center
Thu 08:59:52 AM 36.0772 -96.0872 63° Northeast 501 577 34,900 1,131 Climbing Kansas City Center
Thu 09:00:52 AM 36.1375 -95.9364 64° Northeast 492 566 35,000 49 Climbing Kansas City Center
Thu 09:01:54 AM 36.1967 -95.7872 64° Northeast 486 559 35,000  Level Kansas City Center
Thu 09:02:56 AM 36.2792 -95.6172 59° Northeast 489 563 35,000  Level Kansas City Center
Thu 09:03:55 AM 36.3506 -95.4711 59° Northeast 495 570 35,000 683 Level Kansas City Center
Thu 09:04:59 AM 36.4219 -95.3206 59° Northeast 501 577 36,400 968 Climbing Kansas City Center
Thu 09:05:59 AM 36.4947 -95.1706 59° Northeast 506 582 37,000 295 Climbing Kansas City Center
Thu 09:07:01 AM 36.5619 -95.0283 59° Northeast 504 580 37,000  Level Kansas City Center
Thu 09:08:03 AM 36.6464 -94.8497 59° Northeast 500 575 37,000  Level Kansas City Center
Thu 09:09:03 AM 36.7178 -94.7003 59° Northeast 500 575 37,000  Level Kansas City Center
Thu 09:10:07 AM 36.7861 -94.5500 60° Northeast 498 573 37,000  Level Kansas City Center
Thu 09:11:07 AM 36.8669 -94.4122 54° Northeast 503 579 37,000  Level Kansas City Center
Thu 09:12:08 AM 36.9767 -94.3044 38° Northeast 500 575 37,000  Level Kansas City Center
Thu 09:13:08 AM 37.0864 -94.1978 38° Northeast 500 575 37,000  Level Kansas City Center
Thu 09:14:12 AM 37.2072 -94.0811 38° Northeast 500 575 37,000  Level Kansas City Center
Thu 09:15:11 AM 37.3167 -93.9722 38° Northeast 500 575 37,000  Level Kansas City Center
Thu 09:16:15 AM 37.4269 -93.8625 38° Northeast 502 578 37,000  Level Kansas City Center
Thu 09:17:16 AM 37.5372 -93.7528 38° Northeast 502 578 37,000  Level Kansas City Center
Thu 09:18:16 AM 37.6478 -93.6417 38° Northeast 504 580 37,000  Level Kansas City Center
Thu 09:19:17 AM 37.7575 -93.5292 39° Northeast 505 581 37,000  Level Kansas City Center
Thu 09:20:20 AM 37.8697 -93.4156 39° Northeast 509 586 37,000  Level Kansas City Center
Thu 09:21:22 AM 37.9811 -93.3025 39° Northeast 510 587 37,000  Level Kansas City Center
Thu 09:22:22 AM 38.0936 -93.1881 39° Northeast 511 588 37,000  Level Kansas City Center
Thu 09:23:23 AM 38.2047 -93.0750 39° Northeast 509 586 37,000  Level Kansas City Center
Thu 09:24:24 AM 38.3194 -92.9583 39° Northeast 516 594 37,000  Level Kansas City Center
Thu 09:25:28 AM 38.4314 -92.8425 39° Northeast 514 592 37,000  Level Kansas City Center
Thu 09:26:29 AM 38.5661 -92.7017 39° Northeast 515 593 37,000  Level Kansas City Center
Thu 09:27:30 AM 38.6797 -92.5856 39° Northeast 517 595 37,000  Level Kansas City Center
Thu 09:28:30 AM 38.7922 -92.4664 40° Northeast 519 597 37,000  Level Kansas City Center
Thu 09:29:34 AM 38.9064 -92.3461 39° Northeast 524 603 37,000  Level Kansas City Center
Thu 09:30:35 AM 39.0208 -92.2261 39° Northeast 526 605 37,000  Level Kansas City Center
Thu 09:31:35 AM 39.1297 -92.1025 41° Northeast 521 600 37,000  Level Kansas City Center
Thu 09:32:37 AM 39.2158 -91.9481 54° Northeast 523 602 37,000  Level Kansas City Center
Thu 09:33:37 AM 39.3047 -91.7972 53° Northeast 523 602 37,000  Level Kansas City Center
Thu 09:34:41 AM 39.3950 -91.6372 54° Northeast 523 602 37,000 -387 Level Kansas City Center
Thu 09:35:41 AM 39.4822 -91.4844 53° Northeast 524 603 36,200 -829 Descending Kansas City Center
Thu 09:36:44 AM 39.5703 -91.3289 54° Northeast 529 609 35,300 -1,403 Descending Kansas City Center
Thu 09:37:45 AM 39.6567 -91.1736 54° Northeast 530 610 33,300 -2,419 Descending Kansas City Center
Thu 09:38:48 AM 39.7669 -91.0203 47° Northeast 534 615 30,300 -2,064 Descending Kansas City Center
Thu 09:39:50 AM 39.8808 -90.9083 37° Northeast 559 643 29,000 -634 Descending Kansas City Center
Thu 09:40:51 AM 40.0283 -90.7583 38° Northeast 559 643 29,000  Level Kansas City Center
Thu 09:41:51 AM 40.1286 -90.6097 49° Northeast 547 629 29,000  Level Kansas City Center
Thu 09:42:14 AM 40.1681 -90.5514 48° Northeast 541 623 29,000  Level Chicago Center
Thu 09:43:16 AM 40.2708 -90.4036 48° Northeast 548 631 29,000  Level Chicago Center
Thu 09:44:18 AM 40.3683 -90.2547 49° Northeast 541 623 29,000 -1,742 Level Chicago Center
Thu 09:45:20 AM 40.4731 -90.0806 52° Northeast 536 617 25,400 -2,371 Descending Chicago Center
Thu 09:46:22 AM 40.5664 -89.9328 50° Northeast 527 606 24,100 -677 Descending Chicago Center
Thu 09:47:24 AM 40.6525 -89.7958 50° Northeast 487 560 24,000 -780 Descending Chicago Center
Thu 09:48:25 AM 40.7333 -89.6608 52° Northeast 471 542 22,500 -2,244 Descending Chicago Center
Thu 09:49:27 AM 40.8147 -89.5244 52° Northeast 476 548 19,400 -2,565 Descending Chicago Center
Thu 09:50:29 AM 40.9025 -89.3906 49° Northeast 481 554 17,200 -1,500 Descending Chicago Center
Thu 09:51:31 AM 40.9772 -89.2703 51° Northeast 436 502 16,300 -1,403 Descending Chicago Center
Thu 09:52:33 AM 41.0558 -89.1403 51° Northeast 383 441 14,300 -1,984 Descending Chicago Center
Thu 09:53:35 AM 41.1172 -89.0344 52° Northeast 372 428 12,200 -1,452 Descending Chicago Center
Thu 09:54:37 AM 41.1806 -88.9306 51° Northeast 365 420 11,300 -919 Descending Chicago Center
Thu 09:55:39 AM 41.2406 -88.8322 51° Northeast 347 399 10,300 -1,161 Descending Chicago Center
Thu 09:56:41 AM 41.2964 -88.7389 51° Northeast 327 376 8,900 -1,500 Descending Chicago Center
Thu 09:57:43 AM 41.3631 -88.6278 51° Northeast 322 371 7,200 -1,403 Descending Chicago Center
Thu 09:58:45 AM 41.4006 -88.5300 63° Northeast 304 350 6,000 -581 Descending Chicago Center
Thu 09:59:47 AM 41.4228 -88.4247 74° East 294 338 6,000 -97 Level Chicago Center
Thu 10:00:49 AM 41.4453 -88.3200 74° East 295 339 5,800 -435 Descending Chicago Center
Thu 10:01:51 AM 41.4656 -88.2228 74° East 278 320 5,100 -387 Descending Chicago Center
Thu 10:02:53 AM 41.4831 -88.1356 75° East 249 287 5,000 -537 Descending Chicago Center
Thu 10:03:54 AM 41.5233 -88.0792 46° Northeast 226 260 4,000 -488 Descending Chicago Center
Thu 10:04:56 AM 41.5789 -88.0117 42° Northeast 225 259 4,000  Level Chicago Center
Thu 10:05:58 AM 41.6219 -87.9575 43° Northeast 220 253 4,000 -48 Level Chicago Center
Thu 10:07:00 AM 41.6622 -87.9075 43° Northeast 209 241 3,900 -701 Descending Chicago Center
Thu 10:08:15 AM 41.7167 -87.8333 45° Northeast 202 232 2,400 -1,059 Descending Chicago TRACON
Thu 10:09:16 AM 41.7500 -87.8000 37° Northeast 153 176 1,500 -885 Descending Chicago TRACON
Thu 10:12:00 AM 41.7833 -87.7500 North  Level FlightAware Approximate

Login

Don't have an account? Register now (free) for customized features, flight alerts, and more!